Time;durP1;ratioP1;P1;durP2;ratioP2;P2;SDS_P1;SDS_P2;PMS_P1;PMS_P2;Temp;Humidity;BMP_temperature;BMP_pressure;BME280_temperature;BME280_humidity;BME280_pressure;Samples;Min_cycle;Max_cycle;Signal;HPM_P1;HPM_P2
2023/06/08 00:00:18;;;;;;;4.45;4.07;;;23.70;80.70;;;;;;4986074;28;20296;-75
2023/06/08 00:02:46;;;;;;;4.78;4.10;;;23.70;80.70;;;;;;4992358;28;20240;-75
2023/06/08 00:05:13;;;;;;;5.03;4.35;;;23.70;80.80;;;;;;5005565;28;20214;-75
2023/06/08 00:07:41;;;;;;;6.00;4.25;;;23.70;80.70;;;;;;5002456;28;20314;-75
2023/06/08 00:10:09;;;;;;;4.95;4.43;;;23.60;80.90;;;;;;4990280;28;20245;-78
2023/06/08 00:12:36;;;;;;;7.35;4.38;;;23.60;81.00;;;;;;4986305;28;20269;-78
2023/06/08 00:15:04;;;;;;;6.82;4.35;;;23.50;81.20;;;;;;4987990;28;20214;-78
2023/06/08 00:17:32;;;;;;;6.00;4.20;;;23.50;81.40;;;;;;4989475;28;20214;-78
2023/06/08 00:19:59;;;;;;;6.53;4.03;;;23.50;82.20;;;;;;4989785;28;20281;-79
2023/06/08 00:22:27;;;;;;;6.15;4.45;;;23.40;81.60;;;;;;4989498;28;20669;-79
2023/06/08 00:24:53;;;;;;;6.03;4.38;;;23.40;81.60;;;;;;4989083;28;20210;-78
2023/06/08 00:27:20;;;;;;;4.70;4.25;;;23.30;82.10;;;;;;4989136;28;20288;-79
2023/06/08 00:29:47;;;;;;;6.20;4.40;;;23.40;82.30;;;;;;4988864;28;20635;-78
2023/06/08 00:32:14;;;;;;;4.85;3.90;;;23.30;82.50;;;;;;4989375;28;20298;-78
2023/06/08 00:34:42;;;;;;;6.05;3.67;;;23.30;82.60;;;;;;4989258;28;20253;-79
2023/06/08 00:37:09;;;;;;;4.75;4.22;;;23.30;82.90;;;;;;4989743;28;20226;-78
2023/06/08 00:39:36;;;;;;;5.43;3.88;;;23.30;83.20;;;;;;4989469;28;20199;-79
2023/06/08 00:42:05;;;;;;;4.90;4.50;;;23.30;83.30;;;;;;4989473;28;20301;-78
2023/06/08 00:44:32;;;;;;;5.95;4.53;;;23.20;83.30;;;;;;4989613;28;20210;-80
2023/06/08 00:46:59;;;;;;;4.32;3.85;;;23.20;83.60;;;;;;4988769;28;20847;-79
2023/06/08 00:49:30;;;;;;;4.43;4.03;;;23.10;83.30;;;;;;4989132;28;20213;-79
2023/06/08 00:51:58;;;;;;;4.75;4.25;;;23.10;83.50;;;;;;4988389;28;20245;-79
2023/06/08 00:54:25;;;;;;;6.38;3.97;;;23.00;83.40;;;;;;4988052;28;20297;-76
2023/06/08 00:56:55;;;;;;;4.65;4.20;;;23.00;84.30;;;;;;4988388;28;20835;-75
2023/06/08 00:59:23;;;;;;;5.32;4.22;;;22.90;83.50;;;;;;4998165;28;20223;-75
2023/06/08 01:01:50;;;;;;;4.78;4.13;;;22.90;83.80;;;;;;5000234;28;20410;-75
2023/06/08 01:04:17;;;;;;;4.75;4.38;;;22.90;83.90;;;;;;4988588;28;20214;-75
2023/06/08 01:06:48;;;;;;;4.38;4.07;;;22.80;83.80;;;;;;4988850;28;20214;-76
2023/06/08 01:09:26;;;;;;;7.18;4.07;;;22.80;84.00;;;;;;4989068;28;20205;-75
2023/06/08 01:12:15;;;;;;;4.63;4.10;;;22.80;84.20;;;;;;4987906;28;20228;-75
2023/06/08 01:14:52;;;;;;;4.50;4.10;;;22.70;84.20;;;;;;4987839;28;20205;-76
2023/06/08 01:17:23;;;;;;;5.00;4.28;;;22.70;84.20;;;;;;4988511;28;20293;-76
2023/06/08 01:20:05;;;;;;;4.90;4.15;;;22.70;84.30;;;;;;4991264;28;20201;-75
2023/06/08 01:22:53;;;;;;;8.23;4.65;;;22.60;84.30;;;;;;4993865;28;20333;-76
2023/06/08 01:25:22;;;;;;;5.63;4.10;;;22.60;84.60;;;;;;4988111;28;20221;-75
2023/06/08 01:27:49;;;;;;;4.60;4.15;;;22.60;84.50;;;;;;4988106;28;20245;-76
2023/06/08 01:30:16;;;;;;;4.30;4.00;;;22.50;84.60;;;;;;4988371;28;20317;-75
2023/06/08 01:32:45;;;;;;;5.25;4.00;;;22.60;84.60;;;;;;4987817;28;20349;-75
2023/06/08 01:35:12;;;;;;;5.22;4.28;;;22.50;84.80;;;;;;4987877;28;20212;-77
2023/06/08 01:37:43;;;;;;;4.40;4.10;;;22.50;85.00;;;;;;4987960;28;20309;-75
2023/06/08 01:40:14;;;;;;;4.80;4.40;;;22.50;84.70;;;;;;4988296;28;20194;-75
2023/06/08 01:42:46;;;;;;;6.63;4.50;;;22.50;84.90;;;;;;4988062;28;20203;-75
2023/06/08 01:45:19;;;;;;;4.70;4.30;;;22.40;84.60;;;;;;4987768;28;20229;-76
2023/06/08 01:47:50;;;;;;;4.45;4.05;;;22.40;84.90;;;;;;4987947;28;20208;-75
2023/06/08 01:50:19;;;;;;;4.38;4.07;;;22.40;84.70;;;;;;4987825;28;20303;-75
2023/06/08 01:52:46;;;;;;;4.90;4.50;;;22.30;84.60;;;;;;4987660;28;20709;-75
2023/06/08 01:55:16;;;;;;;5.38;4.60;;;22.30;84.40;;;;;;4987876;28;20583;-75
2023/06/08 01:57:45;;;;;;;6.15;4.43;;;22.30;84.00;;;;;;4988030;28;20221;-76
2023/06/08 02:00:13;;;;;;;4.65;4.25;;;22.20;83.80;;;;;;4987651;28;20772;-75
2023/06/08 02:02:40;;;;;;;6.78;4.28;;;22.20;83.80;;;;;;4987719;28;20293;-75
2023/06/08 02:05:10;;;;;;;5.03;4.63;;;22.00;84.10;;;;;;4987728;28;20288;-75
2023/06/08 02:07:37;;;;;;;4.68;4.25;;;21.90;84.40;;;;;;4987316;28;20214;-75
2023/06/08 02:10:05;;;;;;;4.93;4.20;;;21.90;84.60;;;;;;4987925;28;20210;-75
2023/06/08 02:12:32;;;;;;;6.25;4.22;;;21.90;84.50;;;;;;4987727;28;20628;-75
2023/06/08 02:15:01;;;;;;;4.75;4.30;;;21.90;84.50;;;;;;4987702;28;20216;-76
2023/06/08 02:17:33;;;;;;;5.07;4.55;;;21.90;84.30;;;;;;4987286;28;20210;-76
2023/06/08 02:20:05;;;;;;;6.35;4.78;;;21.90;84.00;;;;;;4987254;28;20202;-76
2023/06/08 02:22:32;;;;;;;5.30;4.45;;;21.90;83.70;;;;;;4986709;28;20209;-76
2023/06/08 02:24:59;;;;;;;5.93;4.20;;;21.80;83.50;;;;;;4987190;28;20581;-75
2023/06/08 02:27:27;;;;;;;4.82;4.43;;;21.80;83.90;;;;;;4986948;28;20213;-75
2023/06/08 02:29:54;;;;;;;5.03;4.53;;;21.80;83.90;;;;;;4986544;28;20221;-76
2023/06/08 02:32:23;;;;;;;5.97;4.40;;;21.70;84.00;;;;;;4986903;28;20234;-75
2023/06/08 02:34:55;;;;;;;4.75;4.30;;;21.70;84.10;;;;;;4986803;28;20731;-75
2023/06/08 02:37:23;;;;;;;6.90;4.53;;;21.60;84.30;;;;;;4985813;28;20820;-75
2023/06/08 02:39:53;;;;;;;4.88;4.47;;;21.60;84.30;;;;;;4986394;28;20216;-75
2023/06/08 02:42:20;;;;;;;5.32;4.78;;;21.60;84.50;;;;;;4986969;28;20241;-75
2023/06/08 02:44:47;;;;;;;6.57;4.60;;;21.50;84.80;;;;;;4986397;28;20202;-75
2023/06/08 02:47:14;;;;;;;4.35;3.95;;;21.50;85.10;;;;;;4986631;28;20220;-75
2023/06/08 02:49:43;;;;;;;7.63;4.47;;;21.50;85.30;;;;;;4986284;28;20233;-75
2023/06/08 02:52:10;;;;;;;6.05;4.50;;;21.50;85.50;;;;;;4986192;28;20981;-75
2023/06/08 02:54:37;;;;;;;7.43;4.05;;;21.50;85.50;;;;;;4990533;28;20205;-74
2023/06/08 02:57:05;;;;;;;4.60;4.20;;;21.50;85.70;;;;;;5005752;28;20206;-75
2023/06/08 02:59:32;;;;;;;6.82;4.40;;;21.50;86.00;;;;;;4987237;28;20206;-75
2023/06/08 03:01:59;;;;;;;4.55;4.15;;;21.50;86.30;;;;;;4986715;28;20210;-76
2023/06/08 03:04:28;;;;;;;4.53;4.22;;;21.40;86.50;;;;;;4986358;28;20656;-76
2023/06/08 03:06:56;;;;;;;5.57;4.05;;;21.40;86.30;;;;;;4986656;28;20201;-76
2023/06/08 03:09:24;;;;;;;4.35;3.95;;;21.40;86.50;;;;;;4986179;28;20242;-72
2023/06/08 03:11:52;;;;;;;5.40;4.40;;;21.40;86.60;;;;;;4985719;28;20594;-72
2023/06/08 03:14:19;;;;;;;10.20;4.30;;;21.40;86.90;;;;;;4997461;28;20304;-73
2023/06/08 03:16:46;;;;;;;4.93;4.10;;;21.30;87.00;;;;;;4985324;28;20666;-72
2023/06/08 03:19:13;;;;;;;7.38;4.65;;;21.30;87.20;;;;;;4985613;28;20225;-72
2023/06/08 03:21:41;;;;;;;7.03;4.50;;;21.30;87.30;;;;;;4970273;28;20298;-71
2023/06/08 03:24:11;;;;;;;4.88;4.47;;;21.30;87.10;;;;;;4965424;28;20682;-71
2023/06/08 03:26:38;;;;;;;5.00;4.50;;;21.30;87.00;;;;;;4991774;28;20989;-72
2023/06/08 03:29:05;;;;;;;4.97;4.53;;;21.20;86.90;;;;;;4984043;28;20619;-71
2023/06/08 03:31:36;;;;;;;5.05;4.55;;;21.20;86.60;;;;;;4983720;28;20747;-72
2023/06/08 03:34:04;;;;;;;4.80;4.22;;;21.20;86.60;;;;;;4984272;28;20198;-72
2023/06/08 03:36:33;;;;;;;4.35;4.03;;;21.20;86.60;;;;;;4984074;28;20213;-72
2023/06/08 03:39:01;;;;;;;4.88;4.47;;;21.20;86.60;;;;;;4984300;28;20206;-72
2023/06/08 03:41:29;;;;;;;6.40;5.07;;;21.20;86.70;;;;;;4984415;28;20669;-73
2023/06/08 03:43:56;;;;;;;4.82;4.35;;;21.10;86.80;;;;;;4984415;28;20245;-73
2023/06/08 03:46:24;;;;;;;6.88;4.75;;;21.10;86.80;;;;;;4984994;28;20373;-73
2023/06/08 03:48:51;;;;;;;5.63;4.90;;;21.10;86.80;;;;;;4986030;28;20257;-72
2023/06/08 03:51:21;;;;;;;7.18;4.50;;;21.10;86.60;;;;;;4987997;28;20774;-73
2023/06/08 03:53:48;;;;;;;5.22;4.70;;;21.10;86.90;;;;;;4987694;28;20672;-72
2023/06/08 03:56:15;;;;;;;4.80;4.40;;;21.10;87.00;;;;;;4987591;28;20253;-73
2023/06/08 03:58:44;;;;;;;8.55;5.15;;;21.00;87.00;;;;;;4987224;28;20252;-73
2023/06/08 04:01:11;;;;;;;6.10;4.88;;;21.00;87.30;;;;;;4991787;28;20609;-73
2023/06/08 04:03:39;;;;;;;4.93;4.00;;;21.00;87.40;;;;;;4988148;28;20545;-74
2023/06/08 04:06:08;;;;;;;10.90;4.50;;;21.10;87.20;;;;;;4987858;28;20241;-73
2023/06/08 04:08:35;;;;;;;5.10;4.40;;;21.10;87.20;;;;;;4991039;28;20634;-73
2023/06/08 04:11:02;;;;;;;6.82;4.38;;;21.10;87.10;;;;;;4987025;28;20285;-73
2023/06/08 04:13:30;;;;;;;5.20;4.70;;;21.00;86.80;;;;;;4988482;28;20284;-73
2023/06/08 04:15:59;;;;;;;4.90;4.43;;;21.10;86.10;;;;;;4988722;28;20292;-73
2023/06/08 04:18:25;;;;;;;5.30;4.80;;;21.10;85.80;;;;;;4988306;28;20289;-73
2023/06/08 04:20:53;;;;;;;10.25;4.82;;;21.10;85.30;;;;;;4987730;28;20285;-73
2023/06/08 04:23:19;;;;;;;5.43;4.93;;;21.00;84.50;;;;;;4987984;28;20322;-74
2023/06/08 04:25:47;;;;;;;7.57;5.30;;;21.00;84.60;;;;;;4993232;28;20256;-73
2023/06/08 04:28:14;;;;;;;5.32;4.82;;;21.10;84.80;;;;;;4987767;28;20198;-73
2023/06/08 04:30:40;;;;;;;15.00;5.70;;;21.00;84.80;;;;;;4987292;28;20665;-73
2023/06/08 04:33:09;;;;;;;13.32;5.70;;;21.10;84.70;;;;;;4988052;28;20289;-73
2023/06/08 04:35:35;;;;;;;7.90;4.93;;;21.10;84.20;;;;;;4987305;28;20210;-73
2023/06/08 04:38:02;;;;;;;7.28;4.88;;;21.20;84.30;;;;;;4987350;28;20739;-73
2023/06/08 04:40:33;;;;;;;9.40;4.88;;;21.20;84.50;;;;;;4987011;28;20685;-73
2023/06/08 04:43:00;;;;;;;9.18;5.50;;;21.30;84.40;;;;;;4987175;28;21005;-73
2023/06/08 04:45:27;;;;;;;5.60;5.10;;;21.30;84.30;;;;;;4988033;28;20316;-73
2023/06/08 04:47:57;;;;;;;6.03;5.40;;;21.30;84.30;;;;;;4987430;28;20316;-72
2023/06/08 04:50:27;;;;;;;8.65;5.55;;;21.40;84.50;;;;;;4987494;28;20268;-73
2023/06/08 04:52:55;;;;;;;9.05;5.05;;;21.40;84.40;;;;;;4986678;28;20233;-73
2023/06/08 04:55:23;;;;;;;6.93;4.95;;;21.40;84.30;;;;;;4986455;28;20226;-73
2023/06/08 04:57:50;;;;;;;10.50;5.28;;;21.50;84.10;;;;;;4987197;28;20210;-73
2023/06/08 05:00:18;;;;;;;5.85;4.93;;;21.50;83.70;;;;;;4986115;28;20325;-73
2023/06/08 05:02:45;;;;;;;5.68;5.18;;;21.50;84.00;;;;;;4985134;28;20632;-73
2023/06/08 05:05:12;;;;;;;7.57;4.72;;;21.50;84.60;;;;;;4979210;28;20302;-73
2023/06/08 05:07:42;;;;;;;6.07;5.20;;;21.50;84.70;;;;;;4978806;28;20242;-73
2023/06/08 05:10:10;;;;;;;5.40;4.57;;;21.50;85.00;;;;;;4986612;28;20210;-74
2023/06/08 05:12:36;;;;;;;16.27;5.30;;;21.50;84.90;;;;;;4986749;28;20313;-73
2023/06/08 05:15:04;;;;;;;7.82;5.00;;;21.50;84.90;;;;;;4987018;28;20210;-73
2023/06/08 05:17:31;;;;;;;10.77;4.80;;;21.50;84.90;;;;;;4986633;28;20289;-73
2023/06/08 05:19:58;;;;;;;6.68;4.68;;;21.60;84.80;;;;;;4984183;28;20228;-73
2023/06/08 05:22:24;;;;;;;8.85;5.55;;;21.50;84.30;;;;;;4985383;28;20289;-73
2023/06/08 05:24:53;;;;;;;5.10;4.68;;;21.50;84.10;;;;;;4990036;28;20216;-73
2023/06/08 05:27:20;;;;;;;7.72;4.95;;;21.60;83.90;;;;;;4984975;28;20284;-72
2023/06/08 05:29:46;;;;;;;5.72;4.93;;;21.60;83.40;;;;;;4986096;28;20206;-72
2023/06/08 05:32:13;;;;;;;6.75;4.72;;;21.70;83.00;;;;;;4986432;28;20697;-72
2023/06/08 05:34:40;;;;;;;8.82;5.38;;;21.60;82.90;;;;;;4986792;28;20289;-72
2023/06/08 05:37:07;;;;;;;5.22;4.72;;;21.70;82.70;;;;;;4986410;28;20313;-72
2023/06/08 05:39:34;;;;;;;10.80;5.10;;;21.60;82.90;;;;;;4986209;28;20575;-73
2023/06/08 05:42:02;;;;;;;7.68;4.72;;;21.70;82.60;;;;;;4983920;28;20680;-72
2023/06/08 05:44:29;;;;;;;9.23;4.95;;;21.70;82.70;;;;;;4986555;28;20289;-72
2023/06/08 05:46:56;;;;;;;7.38;4.95;;;21.80;82.90;;;;;;4986581;28;20229;-73
2023/06/08 05:49:23;;;;;;;5.03;4.55;;;21.80;82.90;;;;;;4986343;28;20653;-72
2023/06/08 05:51:50;;;;;;;9.20;4.78;;;21.70;82.70;;;;;;4985848;28;20241;-73
2023/06/08 05:54:17;;;;;;;5.50;4.75;;;21.80;82.90;;;;;;4986998;28;20206;-72
2023/06/08 05:56:43;;;;;;;7.85;4.65;;;21.90;82.90;;;;;;4986382;28;20202;-73
2023/06/08 05:59:12;;;;;;;6.78;4.82;;;21.80;81.90;;;;;;4984676;28;20218;-72
2023/06/08 06:01:39;;;;;;;7.53;5.10;;;21.90;81.80;;;;;;4984723;28;20214;-73
2023/06/08 06:04:05;;;;;;;16.98;5.57;;;21.90;81.70;;;;;;4985914;28;20306;-72
2023/06/08 06:06:33;;;;;;;9.85;4.80;;;22.00;82.30;;;;;;4986219;28;20216;-73
2023/06/08 06:09:00;;;;;;;7.57;4.60;;;22.00;82.20;;;;;;4985990;28;20697;-72
2023/06/08 06:11:27;;;;;;;170.55;17.63;;;22.00;81.40;;;;;;4984975;28;20580;-72
2023/06/08 06:13:54;;;;;;;37.80;6.65;;;21.90;81.10;;;;;;4985759;28;20293;-72
2023/06/08 06:16:22;;;;;;;9.10;5.00;;;22.00;81.50;;;;;;4985781;28;20310;-72
2023/06/08 06:18:49;;;;;;;7.22;5.13;;;22.00;79.60;;;;;;4986006;28;20360;-73
2023/06/08 06:21:16;;;;;;;7.28;5.75;;;22.00;79.80;;;;;;4985993;28;20297;-72
2023/06/08 06:23:44;;;;;;;8.57;4.93;;;22.00;79.30;;;;;;4985124;28;20306;-72
2023/06/08 06:26:11;;;;;;;6.80;5.28;;;22.00;80.40;;;;;;4983110;28;20236;-72
2023/06/08 06:28:39;;;;;;;6.80;5.10;;;22.10;80.00;;;;;;4985425;28;20212;-73
2023/06/08 06:31:06;;;;;;;8.43;5.38;;;22.20;78.70;;;;;;4985521;28;20699;-72
2023/06/08 06:33:34;;;;;;;8.85;4.80;;;22.20;78.50;;;;;;4985442;28;20230;-72
2023/06/08 06:36:01;;;;;;;6.90;4.90;;;22.30;77.70;;;;;;4983786;28;20284;-72
2023/06/08 06:38:28;;;;;;;17.45;4.95;;;22.40;77.20;;;;;;4983764;28;20700;-72
2023/06/08 06:40:55;;;;;;;10.30;4.72;;;22.50;77.50;;;;;;4983308;28;20293;-72
2023/06/08 06:43:22;;;;;;;9.57;4.72;;;22.60;77.70;;;;;;4985678;28;20206;-72
2023/06/08 06:45:50;;;;;;;7.25;5.53;;;22.60;77.40;;;;;;4985147;28;20205;-72
2023/06/08 06:48:18;;;;;;;5.55;4.65;;;22.60;78.00;;;;;;4982629;28;20297;-72
2023/06/08 06:50:46;;;;;;;5.57;5.05;;;22.70;78.50;;;;;;4987051;28;20310;-72
2023/06/08 06:53:13;;;;;;;6.28;5.32;;;22.70;79.20;;;;;;4985157;28;20436;-72
2023/06/08 06:55:41;;;;;;;5.72;5.32;;;22.80;79.40;;;;;;4986179;28;20610;-72
2023/06/08 06:58:08;;;;;;;6.10;4.80;;;22.80;79.50;;;;;;4987219;28;20324;-72
2023/06/08 07:00:37;;;;;;;8.85;5.18;;;22.90;79.00;;;;;;4984924;28;20220;-72
2023/06/08 07:03:04;;;;;;;5.88;4.32;;;22.90;78.70;;;;;;4984966;28;20213;-72
2023/06/08 07:05:31;;;;;;;4.68;4.22;;;22.90;78.70;;;;;;4985261;28;20265;-72
2023/06/08 07:08:01;;;;;;;5.68;4.70;;;22.80;79.20;;;;;;4982766;28;20210;-71
2023/06/08 07:10:28;;;;;;;10.10;4.45;;;22.80;78.70;;;;;;4985120;28;20317;-72
2023/06/08 07:12:55;;;;;;;52.50;8.52;;;22.80;79.60;;;;;;4984627;28;20244;-72
2023/06/08 07:15:21;;;;;;;14.52;5.18;;;22.90;79.80;;;;;;4984903;28;20635;-71
2023/06/08 07:17:48;;;;;;;5.00;4.47;;;23.00;80.10;;;;;;4984532;28;20294;-72
2023/06/08 07:20:15;;;;;;;8.48;4.40;;;22.90;78.80;;;;;;4984736;28;20694;-72
2023/06/08 07:22:42;;;;;;;11.85;5.30;;;22.80;79.10;;;;;;4984647;28;20772;-72
2023/06/08 07:25:11;;;;;;;8.57;4.57;;;22.90;79.00;;;;;;4985222;28;20292;-72
2023/06/08 07:27:37;;;;;;;5.28;4.43;;;22.90;78.70;;;;;;4988689;28;20281;-72
2023/06/08 07:30:05;;;;;;;5.82;3.97;;;22.90;78.30;;;;;;4988673;28;20417;-72
2023/06/08 07:32:32;;;;;;;4.47;4.05;;;23.00;78.40;;;;;;4985979;28;20272;-72
2023/06/08 07:34:59;;;;;;;5.32;4.40;;;23.10;78.30;;;;;;4986649;28;20198;-72
2023/06/08 07:37:26;;;;;;;7.38;4.50;;;23.20;77.90;;;;;;4989578;28;20430;-72
2023/06/08 07:39:53;;;;;;;4.85;4.05;;;23.30;78.50;;;;;;4988861;28;20503;-72
2023/06/08 07:42:22;;;;;;;8.35;4.60;;;23.40;79.00;;;;;;4989396;28;20288;-72
2023/06/08 07:44:50;;;;;;;6.93;4.30;;;23.50;79.20;;;;;;4988160;28;20248;-72
2023/06/08 07:47:17;;;;;;;9.55;4.50;;;23.60;79.10;;;;;;4988529;28;20221;-72
2023/06/08 07:49:44;;;;;;;7.30;4.28;;;23.80;78.80;;;;;;4988656;28;20213;-72
2023/06/08 07:52:11;;;;;;;4.65;4.15;;;23.90;78.90;;;;;;4988247;28;20234;-72
2023/06/08 07:54:38;;;;;;;4.70;4.00;;;24.00;78.80;;;;;;4992531;28;20737;-72
2023/06/08 07:57:05;;;;;;;6.18;4.03;;;24.00;78.80;;;;;;4987723;28;20681;-72
2023/06/08 07:59:34;;;;;;;8.38;4.47;;;24.10;79.90;;;;;;4988435;28;20281;-72
2023/06/08 08:02:01;;;;;;;5.95;4.40;;;24.10;78.80;;;;;;4988314;28;20292;-72
2023/06/08 08:04:28;;;;;;;4.60;4.20;;;24.20;78.50;;;;;;4988016;28;20586;-72
2023/06/08 08:06:55;;;;;;;5.28;4.25;;;24.30;78.10;;;;;;4988324;28;20293;-72
2023/06/08 08:09:22;;;;;;;10.25;3.88;;;24.40;78.00;;;;;;4988052;28;20668;-72
2023/06/08 08:11:49;;;;;;;8.02;4.72;;;24.40;77.90;;;;;;4987971;28;20320;-72
2023/06/08 08:14:16;;;;;;;7.75;4.45;;;24.40;78.10;;;;;;4988154;28;20321;-72
2023/06/08 08:16:44;;;;;;;8.80;4.15;;;24.50;78.20;;;;;;4987714;28;20234;-72
2023/06/08 08:19:11;;;;;;;5.70;4.13;;;24.50;78.40;;;;;;4987650;28;20206;-72
2023/06/08 08:21:38;;;;;;;7.20;4.40;;;24.50;78.70;;;;;;4987766;28;20220;-72
2023/06/08 08:24:06;;;;;;;7.05;3.95;;;24.60;78.90;;;;;;4987962;28;20289;-72
2023/06/08 08:26:34;;;;;;;4.35;3.95;;;24.60;77.20;;;;;;4987477;28;20202;-72
2023/06/08 08:29:01;;;;;;;4.43;3.92;;;24.70;77.90;;;;;;4987670;28;20218;-72
2023/06/08 08:31:28;;;;;;;7.30;4.40;;;24.70;78.10;;;;;;4987306;28;20297;-72
2023/06/08 08:33:56;;;;;;;6.38;4.43;;;24.80;78.00;;;;;;4985872;28;20253;-72
2023/06/08 08:36:23;;;;;;;5.82;3.45;;;24.80;78.30;;;;;;4986239;28;20309;-72
2023/06/08 08:38:50;;;;;;;8.13;4.70;;;24.80;77.30;;;;;;4986771;28;20297;-72
2023/06/08 08:41:21;;;;;;;5.55;4.30;;;24.90;76.90;;;;;;4987348;28;20289;-72
2023/06/08 08:43:51;;;;;;;4.90;4.40;;;24.90;77.60;;;;;;4988694;28;20285;-72
2023/06/08 08:46:21;;;;;;;6.50;4.35;;;25.00;78.40;;;;;;4982183;28;20289;-72
2023/06/08 08:48:50;;;;;;;6.82;4.30;;;25.10;78.10;;;;;;4987385;28;20260;-72
2023/06/08 08:51:19;;;;;;;17.45;5.57;;;25.10;77.70;;;;;;4985572;28;20202;-72
2023/06/08 08:53:51;;;;;;;7.82;4.38;;;25.20;77.60;;;;;;4987164;28;20313;-72
2023/06/08 08:56:21;;;;;;;5.50;4.25;;;25.20;76.80;;;;;;4985942;28;20206;-72
2023/06/08 08:58:50;;;;;;;7.95;4.80;;;25.30;76.50;;;;;;4986765;28;20208;-72
2023/06/08 09:01:18;;;;;;;8.90;4.63;;;25.40;77.10;;;;;;4984392;28;20531;-72
2023/06/08 09:03:45;;;;;;;7.68;4.47;;;25.50;77.40;;;;;;4986967;28;20210;-72
2023/06/08 09:06:12;;;;;;;5.20;3.97;;;25.70;75.70;;;;;;4986621;28;20297;-72
2023/06/08 09:08:41;;;;;;;8.45;3.55;;;25.80;75.50;;;;;;4986685;28;21006;-72
2023/06/08 09:11:09;;;;;;;4.43;4.03;;;25.90;74.70;;;;;;4986811;28;20215;-72
2023/06/08 09:13:38;;;;;;;7.43;4.18;;;26.10;72.60;;;;;;4986929;28;20244;-72
2023/06/08 09:16:10;;;;;;;9.60;4.28;;;26.10;73.40;;;;;;4986563;28;20210;-72
2023/06/08 09:18:37;;;;;;;6.50;3.95;;;26.30;73.10;;;;;;4984179;28;20186;-71
2023/06/08 09:21:23;;;;;;;7.25;3.92;;;26.30;73.60;;;;;;4986310;28;20718;-72
2023/06/08 09:24:08;;;;;;;5.93;4.15;;;26.30;73.10;;;;;;4986011;28;20205;-72
2023/06/08 09:26:36;;;;;;;9.85;4.13;;;26.30;73.50;;;;;;4981677;28;20289;-72
2023/06/08 09:29:04;;;;;;;8.02;4.50;;;26.40;74.20;;;;;;4986554;28;20237;-72
2023/06/08 09:31:32;;;;;;;4.82;4.15;;;26.50;73.60;;;;;;4986316;28;20264;-72
2023/06/08 09:34:06;;;;;;;5.43;3.90;;;26.60;73.70;;;;;;4986797;28;20226;-72
2023/06/08 09:36:36;;;;;;;6.43;3.90;;;26.70;73.40;;;;;;4983059;28;20232;-72
2023/06/08 09:39:05;;;;;;;7.68;3.92;;;26.70;73.80;;;;;;4986080;28;20206;-72
2023/06/08 09:41:36;;;;;;;7.60;4.00;;;26.60;72.30;;;;;;4986079;28;20950;-72
2023/06/08 09:44:16;;;;;;;4.85;3.60;;;26.60;72.10;;;;;;4986537;28;20293;-72
2023/06/08 09:46:45;;;;;;;4.20;3.90;;;26.50;72.70;;;;;;4985408;28;20285;-72
2023/06/08 09:49:14;;;;;;;6.63;4.20;;;26.60;71.60;;;;;;4986224;28;20221;-72
2023/06/08 09:51:46;;;;;;;7.47;4.10;;;26.60;73.00;;;;;;4985883;28;20242;-71
2023/06/08 09:54:15;;;;;;;10.85;4.60;;;26.80;72.10;;;;;;4985085;28;20210;-72
2023/06/08 09:56:47;;;;;;;7.57;4.13;;;26.90;72.70;;;;;;4984389;28;20252;-71
2023/06/08 09:59:17;;;;;;;6.13;4.20;;;27.00;72.00;;;;;;4983601;28;20205;-72
2023/06/08 10:01:49;;;;;;;6.60;4.10;;;27.20;71.60;;;;;;4985512;28;20325;-72
2023/06/08 10:04:22;;;;;;;5.60;3.63;;;27.30;72.60;;;;;;4986082;28;20199;-74
2023/06/08 10:06:53;;;;;;;3.22;2.92;;;27.40;74.80;;;;;;4985908;28;20199;-74
2023/06/08 10:09:24;;;;;;;3.58;3.20;;;27.50;76.30;;;;;;4986226;28;20656;-74
2023/06/08 10:11:54;;;;;;;6.13;3.30;;;27.40;78.80;;;;;;4986071;28;20198;-75
2023/06/08 10:14:21;;;;;;;7.57;4.28;;;27.30;79.30;;;;;;4986107;28;20771;-75
2023/06/08 10:16:48;;;;;;;3.75;3.30;;;27.30;72.70;;;;;;4985516;28;20203;-74
2023/06/08 10:19:15;;;;;;;4.28;3.88;;;27.20;77.50;;;;;;4983535;28;20210;-75
2023/06/08 10:21:43;;;;;;;5.53;4.25;;;27.10;77.00;;;;;;4985702;28;20264;-75
2023/06/08 10:24:11;;;;;;;4.75;4.25;;;27.00;75.60;;;;;;4985652;28;20555;-74
2023/06/08 10:26:38;;;;;;;5.00;3.80;;;26.90;76.60;;;;;;4985582;28;20664;-74
2023/06/08 10:29:08;;;;;;;3.80;3.50;;;26.90;78.20;;;;;;4985571;28;20217;-75
2023/06/08 10:31:39;;;;;;;5.60;4.35;;;26.80;76.20;;;;;;4985235;28;20226;-74
2023/06/08 10:34:11;;;;;;;4.60;4.07;;;26.90;74.40;;;;;;4985494;28;20309;-75
2023/06/08 10:36:39;;;;;;;4.50;4.20;;;26.90;76.00;;;;;;4985415;28;20280;-74
2023/06/08 10:39:12;;;;;;;7.28;4.85;;;27.10;74.40;;;;;;4985817;28;20198;-75
2023/06/08 10:41:41;;;;;;;22.73;6.05;;;27.20;75.20;;;;;;4985853;28;20202;-74
2023/06/08 10:44:24;;;;;;;4.82;4.30;;;27.30;74.60;;;;;;4987853;28;20328;-74
2023/06/08 10:46:56;;;;;;;5.47;4.22;;;27.50;71.80;;;;;;4985010;28;20650;-75
2023/06/08 10:49:23;;;;;;;9.32;4.30;;;27.70;72.80;;;;;;4985750;28;20652;-74
2023/06/08 10:51:55;;;;;;;27.17;5.32;;;27.90;73.70;;;;;;4985209;28;20234;-75
2023/06/08 10:54:22;;;;;;;4.28;3.97;;;28.00;73.00;;;;;;4986362;28;20233;-75
2023/06/08 10:56:52;;;;;;;4.15;3.90;;;28.10;74.00;;;;;;4985600;28;20299;-75
2023/06/08 10:59:32;;;;;;;6.00;3.95;;;28.20;72.50;;;;;;4985089;28;20202;-76
2023/06/08 11:02:03;;;;;;;4.30;4.00;;;28.20;73.20;;;;;;4980483;28;20205;-75
2023/06/08 11:04:32;;;;;;;5.75;4.15;;;28.40;72.30;;;;;;4985463;28;20929;-75
2023/06/08 11:07:03;;;;;;;5.32;3.90;;;28.50;72.70;;;;;;4984654;28;20700;-75
2023/06/08 11:09:31;;;;;;;5.70;4.15;;;28.60;72.40;;;;;;4985013;28;20226;-75
2023/06/08 11:11:59;;;;;;;5.28;4.07;;;28.60;72.20;;;;;;4984761;28;20221;-75
2023/06/08 11:14:27;;;;;;;6.10;4.55;;;28.70;71.70;;;;;;4985008;28;20226;-75
2023/06/08 11:16:56;;;;;;;4.85;4.03;;;28.90;71.10;;;;;;4981431;28;20672;-75
2023/06/08 11:19:24;;;;;;;5.05;3.90;;;29.00;70.80;;;;;;4984886;28;20241;-75
2023/06/08 11:21:53;;;;;;;5.97;3.88;;;29.10;70.60;;;;;;4985595;28;20210;-75
2023/06/08 11:24:21;;;;;;;4.75;4.20;;;29.10;70.60;;;;;;4987450;28;20284;-75
2023/06/08 11:26:48;;;;;;;6.18;4.20;;;29.00;71.00;;;;;;5001384;28;20198;-75
2023/06/08 11:29:15;;;;;;;6.47;4.32;;;28.90;71.10;;;;;;4985981;28;20246;-75
2023/06/08 11:31:44;;;;;;;7.70;4.20;;;28.70;71.60;;;;;;4985260;28;20238;-75
2023/06/08 11:34:13;;;;;;;5.43;4.57;;;28.40;71.90;;;;;;4985799;28;20238;-78
2023/06/08 11:36:42;;;;;;;4.60;4.20;;;28.20;71.20;;;;;;4985273;28;20281;-75
2023/06/08 11:39:10;;;;;;;7.15;4.57;;;28.00;72.20;;;;;;4985186;28;20202;-75
2023/06/08 11:41:37;;;;;;;4.50;3.97;;;27.80;72.60;;;;;;4984947;28;20214;-75
2023/06/08 11:44:04;;;;;;;5.15;4.38;;;27.60;72.90;;;;;;4985307;28;20206;-76
2023/06/08 11:46:32;;;;;;;4.40;4.10;;;27.50;73.10;;;;;;4984807;28;20203;-75
2023/06/08 11:49:09;;;;;;;4.72;4.32;;;27.40;73.30;;;;;;4984704;28;20210;-75
2023/06/08 11:51:45;;;;;;;4.35;4.05;;;27.40;73.40;;;;;;4984879;28;20202;-75
2023/06/08 11:54:12;;;;;;;4.80;4.45;;;27.50;73.30;;;;;;4985715;28;20214;-75
2023/06/08 11:56:39;;;;;;;4.18;3.85;;;27.50;73.00;;;;;;4991628;28;20217;-76
2023/06/08 11:59:06;;;;;;;4.38;3.97;;;27.50;73.00;;;;;;4984874;28;20293;-76
2023/06/08 12:01:33;;;;;;;5.13;4.03;;;27.50;73.00;;;;;;4984823;28;20577;-76
2023/06/08 12:03:59;;;;;;;4.55;4.13;;;27.30;73.10;;;;;;4985185;28;20230;-75
2023/06/08 12:06:28;;;;;;;4.47;4.07;;;27.40;73.30;;;;;;4984808;28;20205;-76
2023/06/08 12:08:57;;;;;;;6.22;4.25;;;27.50;73.10;;;;;;4985395;28;20586;-76
2023/06/08 12:11:24;;;;;;;13.00;5.13;;;27.80;72.70;;;;;;4988527;28;20768;-76
2023/06/08 12:13:53;;;;;;;4.93;4.13;;;28.20;71.10;;;;;;4984872;28;20233;-76
2023/06/08 12:16:20;;;;;;;7.07;3.97;;;28.50;71.00;;;;;;4987497;28;20202;-76
2023/06/08 12:18:47;;;;;;;4.88;3.90;;;28.50;70.50;;;;;;4988775;28;20211;-76
2023/06/08 12:21:18;;;;;;;5.10;3.95;;;28.40;69.90;;;;;;4988904;28;20208;-76
2023/06/08 12:23:46;;;;;;;4.60;4.20;;;28.50;69.70;;;;;;4988999;28;20572;-76
2023/06/08 12:26:14;;;;;;;4.80;4.28;;;28.70;70.00;;;;;;4995351;28;20668;-76
2023/06/08 12:28:41;;;;;;;5.65;4.00;;;29.00;69.50;;;;;;5000289;28;20208;-76
2023/06/08 12:31:08;;;;;;;5.07;3.90;;;29.20;68.80;;;;;;4995783;28;20242;-76
2023/06/08 12:33:34;;;;;;;5.03;3.92;;;29.50;68.40;;;;;;4988021;28;20696;-76
2023/06/08 12:36:01;;;;;;;15.10;5.25;;;29.70;67.70;;;;;;4992827;28;20755;-75
2023/06/08 12:38:28;;;;;;;7.20;4.15;;;30.00;66.90;;;;;;4987660;28;20197;-76
2023/06/08 12:40:57;;;;;;;6.20;3.75;;;30.20;66.50;;;;;;4987878;28;20614;-76
2023/06/08 12:43:24;;;;;;;5.50;3.97;;;30.40;66.40;;;;;;4987928;28;20265;-75
2023/06/08 12:45:51;;;;;;;5.93;3.97;;;30.40;66.20;;;;;;4985128;28;20668;-76
2023/06/08 12:48:19;;;;;;;7.93;4.47;;;30.40;66.20;;;;;;4987746;28;20202;-75
2023/06/08 12:50:46;;;;;;;6.57;4.57;;;30.50;66.10;;;;;;4987466;28;20198;-76